First Ferry Vi — VRS4293 — position and weather

sailwx.info

Track history (hours):
 
Tides and Currents Weather Stations Pressure Air Temp Water Temp Dewpoint Dewpoint Depression Visibility Wind Speed Wind Dir Waves Ship Positions

First Ferry Vi

Last reported at 2017-Nov-23 15:51 UTC. Time now 2017-Nov-23 20:42 UTC.
Position N 22°18' E 114°09'.

Length 36 m; draft 1.8 m.

Type: High speed craft. MMSI: 477995028.

Date/timePositionNaut miles runAvg speedWind from/ knotsBaromVisibWave heightAir tempDewpointWater temp
2017-Nov-23 15:51N 22°18' E 114°09'0 1.1
2017-Nov-23 15:30N 22°17' E 114°09'1 0.4
2017-Nov-23 14:07N 22°18' E 114°09'1 6.7
2017-Nov-23 14:00N 22°17' E 114°10'0 0.2
2017-Nov-23 12:05N 22°18' E 114°09'0 1.1
2017-Nov-23 11:42N 22°17' E 114°10'0 0.3
2017-Nov-23 10:29N 22°18' E 114°09'0 0.3
2017-Nov-23 08:51N 22°18' E 114°09'1 1.4
2017-Nov-23 08:19N 22°17' E 114°10'1 0.4
2017-Nov-23 06:50N 22°18' E 114°09'1 1.7
2017-Nov-23 06:27N 22°17' E 114°10'2 0.3
2017-Nov-23 00:36N 22°18' E 114°11'113.3
2017-Nov-23 00:30N 22°17' E 114°10'1 0.9
2017-Nov-22 23:07N 22°18' E 114°09'1 4.2
2017-Nov-22 22:57N 22°17' E 114°10'  
2017-Nov-19 23:06N 22°18' E 114°09'0 4.2
2017-Nov-19 23:00N 22°17' E 114°10'0 0.0
2017-Nov-19 16:00N 22°18' E 114°09'0 0.0
2017-Nov-19 14:05N 22°18' E 114°09'0 0.6
2017-Nov-19 13:34N 22°17' E 114°10'1 0.5
2017-Nov-19 12:07N 22°18' E 114°09'1 1.5
2017-Nov-19 11:36N 22°17' E 114°10'1 0.5
2017-Nov-19 10:06N 22°18' E 114°09'1 1.2
2017-Nov-19 09:31N 22°17' E 114°10'0 7.0
2017-Nov-19 09:30N 22°17' E 114°10'0 0.3
2017-Nov-19 08:05N 22°18' E 114°09'0 0.9
2017-Nov-19 07:35N 22°17' E 114°10'0 0.3
2017-Nov-19 05:56N 22°18' E 114°09'1 0.7
2017-Nov-19 04:00N 22°18' E 114°08'3 2.0
2017-Nov-19 02:19N 22°16' E 114°05'5 9.3
2017-Nov-19 01:47N 22°17' E 114°10'1 0.6
2017-Nov-18 23:46N 22°18' E 114°09'9 1.3
2017-Nov-18 17:19N 22°14' E 114°02'1 2.9
2017-Nov-18 17:00N 22°13' E 114°01'913.3
2017-Nov-18 16:20N 22°17' E 114°10'1 0.6
2017-Nov-18 15:00N 22°18' E 114°09'0 0.1
2017-Nov-18 13:06N 22°18' E 114°09'1 1.7
2017-Nov-18 12:44N 22°17' E 114°10'0 0.2
2017-Nov-18 09:46N 22°18' E 114°09'0 0.9
2017-Nov-18 09:15N 22°17' E 114°10'9 8.4
2017-Nov-18 08:14N 22°13' E 114°01'622.5
2017-Nov-18 07:58N 22°18' E 114°06'3 4.7
2017-Nov-18 07:18N 22°17' E 114°10'819.8
2017-Nov-18 06:55N 22°14' E 114°02'1 1.9
2017-Nov-18 06:14N 22°13' E 114°01'921.5
2017-Nov-18 05:50N 22°18' E 114°09'1 1.5
2017-Nov-18 05:23N 22°17' E 114°10'818.6
2017-Nov-18 04:57N 22°14' E 114°02'1 1.4
2017-Nov-18 04:16N 22°13' E 114°01'920.4
2017-Nov-18 03:50N 22°17' E 114°09'0 0.6
2017-Nov-18 03:30N 22°17' E 114°10'1 0.4
2017-Nov-18 01:45N 22°17' E 114°10'1 0.8
2017-Nov-18 00:06N 22°18' E 114°09'0 0.7
2017-Nov-17 23:33N 22°17' E 114°09'0 0.0
2017-Nov-17 16:35N 22°18' E 114°09'0 1.5
2017-Nov-17 16:16N 22°17' E 114°10'0 0.0
2017-Nov-17 14:34N 22°17' E 114°10'1 0.4
2017-Nov-17 13:03N 22°18' E 114°09'1 1.3
2017-Nov-17 12:39N 22°17' E 114°10'1 0.2
2017-Nov-17 09:46N 22°18' E 114°09'0 0.0
2017-Nov-17 07:51N 22°18' E 114°09'1 1.5
2017-Nov-17 07:25N 22°17' E 114°10'1 0.3
2017-Nov-17 03:32N 22°18' E 114°09'011.0
2017-Nov-17 03:31N 22°18' E 114°09'9 7.1
2017-Nov-17 02:15N 22°13' E 114°01'821.8
2017-Nov-17 01:52N 22°18' E 114°09'0 0.2
2017-Nov-17 00:05N 22°18' E 114°09'0 0.0
2017-Nov-16 16:34N 22°17' E 114°09'0 0.8
2017-Nov-16 16:17N 22°17' E 114°10'1 0.5
2017-Nov-16 15:06N 22°18' E 114°09'1 1.1
2017-Nov-16 14:32N 22°17' E 114°10'010.1
2017-Nov-16 14:31N 22°17' E 114°09'0 0.2
2017-Nov-16 13:07N 22°18' E 114°09'0 1.1
2017-Nov-16 12:43N 22°17' E 114°10'0 0.1
2017-Nov-16 09:45N 22°17' E 114°09'0 0.6
2017-Nov-16 09:19N 22°17' E 114°10'1 0.5
2017-Nov-16 07:52N 22°18' E 114°09'1 1.5
2017-Nov-16 07:26N 22°17' E 114°10'1 0.4
2017-Nov-16 03:35N 22°18' E 114°11'113.5
2017-Nov-16 03:31N 22°17' E 114°10'1 0.4
2017-Nov-16 01:51N 22°18' E 114°09'0 0.1
2017-Nov-16 00:05N 22°18' E 114°09'0 0.0
2017-Nov-15 16:34N 22°18' E 114°09'0 1.2
2017-Nov-15 16:18N 22°17' E 114°10'0 0.3
2017-Nov-15 15:05N 22°18' E 114°09'0 0.7
2017-Nov-15 14:34N 22°17' E 114°10'0 0.3
2017-Nov-15 13:05N 22°18' E 114°09'0 0.5
2017-Nov-15 12:15N 22°17' E 114°10'1 0.5
2017-Nov-15 11:08N 22°18' E 114°09'1 3.1
2017-Nov-15 10:56N 22°17' E 114°10'0 0.3
2017-Nov-15 09:46N 22°18' E 114°09'0 0.0
2017-Nov-15 07:50N 22°18' E 114°09'0 1.0
2017-Nov-15 07:30N 22°17' E 114°10'0 0.2
2017-Nov-15 04:14N 22°17' E 114°10'1 1.8
2017-Nov-15 03:31N 22°18' E 114°09'012.5
2017-Nov-15 03:30N 22°18' E 114°09'0 0.2
2017-Nov-15 01:50N 22°18' E 114°09'0 0.2
2017-Nov-15 00:06N 22°18' E 114°09'1 1.3
2017-Nov-14 23:36N 22°17' E 114°10'0 0.0
2017-Nov-14 16:34N 22°18' E 114°09'0 1.0
2017-Nov-14 16:18N 22°17' E 114°10'1 0.5
2017-Nov-14 15:07N 22°18' E 114°09'1 1.2
2017-Nov-14 14:33N 22°17' E 114°10'0 0.3
2017-Nov-14 13:05N 22°18' E 114°09'0 0.9
2017-Nov-14 12:40N 22°17' E 114°10'0 0.1
2017-Nov-14 09:45N 22°18' E 114°09'0 1.0
2017-Nov-14 09:20N 22°17' E 114°10'1 0.5
2017-Nov-14 07:52N 22°18' E 114°09'1 1.8
2017-Nov-14 07:28N 22°17' E 114°10'1 0.3
2017-Nov-14 03:32N 22°18' E 114°11'015.0
2017-Nov-14 03:30N 22°17' E 114°10'9 7.3
2017-Nov-14 02:13N 22°13' E 114°01'822.4
2017-Nov-14 01:51N 22°18' E 114°09'0 0.1
2017-Nov-14 00:06N 22°18' E 114°09'1 1.3
2017-Nov-13 23:34N 22°17' E 114°10'  
Track history (hours):
 
Tides and Currents Weather Stations Pressure Air Temp Water Temp Dewpoint Dewpoint Depression Visibility Wind Speed Wind Dir Waves Ship Positions

First Ferry Vi

Last reported at 2017-Nov-23 15:51 UTC. Time now 2017-Nov-23 20:42 UTC.
Position N 22°18' E 114°09'.

Length 36 m; draft 1.8 m.

Type: High speed craft. MMSI: 477995028.

Date/timePositionNaut miles runAvg speedWind from/ knotsBaromVisibWave heightAir tempDewpointWater temp
2017-Nov-23 15:51N 22°18' E 114°09'0 1.1
2017-Nov-23 15:30N 22°17' E 114°09'1 0.4
2017-Nov-23 14:07N 22°18' E 114°09'1 6.7
2017-Nov-23 14:00N 22°17' E 114°10'0 0.2
2017-Nov-23 12:05N 22°18' E 114°09'0 1.1
2017-Nov-23 11:42N 22°17' E 114°10'0 0.3
2017-Nov-23 10:29N 22°18' E 114°09'0 0.3
2017-Nov-23 08:51N 22°18' E 114°09'1 1.4
2017-Nov-23 08:19N 22°17' E 114°10'1 0.4
2017-Nov-23 06:50N 22°18' E 114°09'1 1.7
2017-Nov-23 06:27N 22°17' E 114°10'2 0.3
2017-Nov-23 00:36N 22°18' E 114°11'113.3
2017-Nov-23 00:30N 22°17' E 114°10'1 0.9
2017-Nov-22 23:07N 22°18' E 114°09'1 4.2
2017-Nov-22 22:57N 22°17' E 114°10'  
2017-Nov-19 23:06N 22°18' E 114°09'0 4.2
2017-Nov-19 23:00N 22°17' E 114°10'0 0.0
2017-Nov-19 16:00N 22°18' E 114°09'0 0.0
2017-Nov-19 14:05N 22°18' E 114°09'0 0.6
2017-Nov-19 13:34N 22°17' E 114°10'1 0.5
2017-Nov-19 12:07N 22°18' E 114°09'1 1.5
2017-Nov-19 11:36N 22°17' E 114°10'1 0.5
2017-Nov-19 10:06N 22°18' E 114°09'1 1.2
2017-Nov-19 09:31N 22°17' E 114°10'0 7.0
2017-Nov-19 09:30N 22°17' E 114°10'0 0.3
2017-Nov-19 08:05N 22°18' E 114°09'0 0.9
2017-Nov-19 07:35N 22°17' E 114°10'0 0.3
2017-Nov-19 05:56N 22°18' E 114°09'1 0.7
2017-Nov-19 04:00N 22°18' E 114°08'3 2.0
2017-Nov-19 02:19N 22°16' E 114°05'5 9.3
2017-Nov-19 01:47N 22°17' E 114°10'1 0.6
2017-Nov-18 23:46N 22°18' E 114°09'9 1.3
2017-Nov-18 17:19N 22°14' E 114°02'1 2.9
2017-Nov-18 17:00N 22°13' E 114°01'913.3
2017-Nov-18 16:20N 22°17' E 114°10'1 0.6
2017-Nov-18 15:00N 22°18' E 114°09'0 0.1
2017-Nov-18 13:06N 22°18' E 114°09'1 1.7
2017-Nov-18 12:44N 22°17' E 114°10'0 0.2
2017-Nov-18 09:46N 22°18' E 114°09'0 0.9
2017-Nov-18 09:15N 22°17' E 114°10'9 8.4
2017-Nov-18 08:14N 22°13' E 114°01'622.5
2017-Nov-18 07:58N 22°18' E 114°06'3 4.7
2017-Nov-18 07:18N 22°17' E 114°10'819.8
2017-Nov-18 06:55N 22°14' E 114°02'1 1.9
2017-Nov-18 06:14N 22°13' E 114°01'921.5
2017-Nov-18 05:50N 22°18' E 114°09'1 1.5
2017-Nov-18 05:23N 22°17' E 114°10'818.6
2017-Nov-18 04:57N 22°14' E 114°02'1 1.4
2017-Nov-18 04:16N 22°13' E 114°01'920.4
2017-Nov-18 03:50N 22°17' E 114°09'0 0.6
2017-Nov-18 03:30N 22°17' E 114°10'1 0.4
2017-Nov-18 01:45N 22°17' E 114°10'1 0.8
2017-Nov-18 00:06N 22°18' E 114°09'0 0.7
2017-Nov-17 23:33N 22°17' E 114°09'0 0.0
2017-Nov-17 16:35N 22°18' E 114°09'0 1.5
2017-Nov-17 16:16N 22°17' E 114°10'0 0.0
2017-Nov-17 14:34N 22°17' E 114°10'1 0.4
2017-Nov-17 13:03N 22°18' E 114°09'1 1.3
2017-Nov-17 12:39N 22°17' E 114°10'1 0.2
2017-Nov-17 09:46N 22°18' E 114°09'0 0.0
2017-Nov-17 07:51N 22°18' E 114°09'1 1.5
2017-Nov-17 07:25N 22°17' E 114°10'1 0.3
2017-Nov-17 03:32N 22°18' E 114°09'011.0
2017-Nov-17 03:31N 22°18' E 114°09'9 7.1
2017-Nov-17 02:15N 22°13' E 114°01'821.8
2017-Nov-17 01:52N 22°18' E 114°09'0 0.2
2017-Nov-17 00:05N 22°18' E 114°09'0 0.0
2017-Nov-16 16:34N 22°17' E 114°09'0 0.8
2017-Nov-16 16:17N 22°17' E 114°10'1 0.5
2017-Nov-16 15:06N 22°18' E 114°09'1 1.1
2017-Nov-16 14:32N 22°17' E 114°10'010.1
2017-Nov-16 14:31N 22°17' E 114°09'0 0.2
2017-Nov-16 13:07N 22°18' E 114°09'0 1.1
2017-Nov-16 12:43N 22°17' E 114°10'0 0.1
2017-Nov-16 09:45N 22°17' E 114°09'0 0.6
2017-Nov-16 09:19N 22°17' E 114°10'1 0.5
2017-Nov-16 07:52N 22°18' E 114°09'1 1.5
2017-Nov-16 07:26N 22°17' E 114°10'1 0.4
2017-Nov-16 03:35N 22°18' E 114°11'113.5
2017-Nov-16 03:31N 22°17' E 114°10'1 0.4
2017-Nov-16 01:51N 22°18' E 114°09'0 0.1
2017-Nov-16 00:05N 22°18' E 114°09'0 0.0
2017-Nov-15 16:34N 22°18' E 114°09'0 1.2
2017-Nov-15 16:18N 22°17' E 114°10'0 0.3
2017-Nov-15 15:05N 22°18' E 114°09'0 0.7
2017-Nov-15 14:34N 22°17' E 114°10'0 0.3
2017-Nov-15 13:05N 22°18' E 114°09'0 0.5
2017-Nov-15 12:15N 22°17' E 114°10'1 0.5
2017-Nov-15 11:08N 22°18' E 114°09'1 3.1
2017-Nov-15 10:56N 22°17' E 114°10'0 0.3
2017-Nov-15 09:46N 22°18' E 114°09'0 0.0
2017-Nov-15 07:50N 22°18' E 114°09'0 1.0
2017-Nov-15 07:30N 22°17' E 114°10'0 0.2
2017-Nov-15 04:14N 22°17' E 114°10'1 1.8
2017-Nov-15 03:31N 22°18' E 114°09'012.5
2017-Nov-15 03:30N 22°18' E 114°09'0 0.2
2017-Nov-15 01:50N 22°18' E 114°09'0 0.2
2017-Nov-15 00:06N 22°18' E 114°09'1 1.3
2017-Nov-14 23:36N 22°17' E 114°10'0 0.0
2017-Nov-14 16:34N 22°18' E 114°09'0 1.0
2017-Nov-14 16:18N 22°17' E 114°10'1 0.5
2017-Nov-14 15:07N 22°18' E 114°09'1 1.2
2017-Nov-14 14:33N 22°17' E 114°10'0 0.3
2017-Nov-14 13:05N 22°18' E 114°09'0 0.9
2017-Nov-14 12:40N 22°17' E 114°10'0 0.1
2017-Nov-14 09:45N 22°18' E 114°09'0 1.0
2017-Nov-14 09:20N 22°17' E 114°10'1 0.5
2017-Nov-14 07:52N 22°18' E 114°09'1 1.8
2017-Nov-14 07:28N 22°17' E 114°10'1 0.3
2017-Nov-14 03:32N 22°18' E 114°11'015.0
2017-Nov-14 03:30N 22°17' E 114°10'9 7.3
2017-Nov-14 02:13N 22°13' E 114°01'822.4
2017-Nov-14 01:51N 22°18' E 114°09'0 0.1
2017-Nov-14 00:06N 22°18' E 114°09'1 1.3
2017-Nov-13 23:34N 22°17' E 114°10'  

Dump ship's entire track history